Time;durP1;ratioP1;P1;durP2;ratioP2;P2;SDS_P1;SDS_P2;PMS_P1;PMS_P2;Temp;Humidity;BMP_temperature;BMP_pressure;BME280_temperature;BME280_humidity;BME280_pressure;Samples;Min_cycle;Max_cycle;Signal;HPM_P1;HPM_P2
2023/12/27 00:00:34;;;;;;;;;;;;;;;22.20;28.49;97824.28;4997795;28;1017;-74
2023/12/27 00:03:00;;;;;;;;;;;;;;;21.76;28.91;97829.66;4981164;28;1117;-74
2023/12/27 00:05:26;;;;;;;;;;;;;;;21.98;28.59;97834.69;5013441;28;1975;-74
2023/12/27 00:07:51;;;;;;;;;;;;;;;21.73;28.79;97836.22;5013563;28;941;-74
2023/12/27 00:10:17;;;;;;;;;;;;;;;22.06;28.77;97833.19;4999866;28;1125;-74
2023/12/27 00:12:42;;;;;;;;;;;;;;;22.20;28.62;97840.50;5018350;28;1254;-74
2023/12/27 00:15:08;;;;;;;;;;;;;;;22.04;28.83;97832.88;4996889;28;932;-74
2023/12/27 00:17:34;;;;;;;;;;;;;;;22.02;28.88;97835.34;5013441;28;980;-74
2023/12/27 00:19:59;;;;;;;;;;;;;;;22.06;28.57;97836.81;5013411;28;1196;-74
2023/12/27 00:22:25;;;;;;;;;;;;;;;21.80;28.90;97824.66;5013324;28;1087;-74
2023/12/27 00:24:50;;;;;;;;;;;;;;;21.84;28.86;97833.06;4997126;28;1971;-74
2023/12/27 00:27:16;;;;;;;;;;;;;;;22.06;28.97;97836.03;5013691;28;958;-74
2023/12/27 00:29:43;;;;;;;;;;;;;;;22.02;28.77;97833.34;4997166;28;1336;-74
2023/12/27 00:32:09;;;;;;;;;;;;;;;21.88;29.31;97835.81;5033151;28;958;-74
2023/12/27 00:34:35;;;;;;;;;;;;;;;21.94;28.76;97839.66;5032987;28;1038;-74
2023/12/27 00:37:01;;;;;;;;;;;;;;;22.09;28.62;97843.63;5033411;28;962;-74
2023/12/27 00:39:27;;;;;;;;;;;;;;;21.85;28.77;97843.16;5000278;28;1083;-74
2023/12/27 00:41:53;;;;;;;;;;;;;;;21.44;29.38;97829.78;5016484;28;1015;-74
2023/12/27 00:44:18;;;;;;;;;;;;;;;21.90;29.03;97828.44;5016422;28;1895;-74
2023/12/27 00:46:44;;;;;;;;;;;;;;;21.82;29.24;97827.88;4996615;28;1184;-74
2023/12/27 00:49:10;;;;;;;;;;;;;;;22.06;28.82;97813.38;5012944;28;971;-74
2023/12/27 00:51:36;;;;;;;;;;;;;;;22.06;28.71;97813.38;5013395;28;991;-73
2023/12/27 00:54:01;;;;;;;;;;;;;;;21.74;28.94;97815.16;5013090;28;921;-73
2023/12/27 00:56:27;;;;;;;;;;;;;;;21.80;28.72;97806.88;5013015;28;923;-73
2023/12/27 00:58:54;;;;;;;;;;;;;;;21.84;28.28;97794.19;5014901;28;1249;-73
2023/12/27 01:01:19;;;;;;;;;;;;;;;21.77;28.68;97800.09;5017147;28;967;-73
2023/12/27 01:03:45;;;;;;;;;;;;;;;21.75;28.94;97801.78;5001654;28;1898;-73
2023/12/27 01:06:11;;;;;;;;;;;;;;;21.88;28.60;97796.16;4997211;28;1123;-74
2023/12/27 01:08:36;;;;;;;;;;;;;;;22.01;28.38;97816.75;4997432;28;1007;-73
2023/12/27 01:11:02;;;;;;;;;;;;;;;21.72;28.96;97817.66;4996775;28;1203;-73
2023/12/27 01:13:28;;;;;;;;;;;;;;;21.55;28.88;97827.44;4997010;28;1051;-73
2023/12/27 01:15:54;;;;;;;;;;;;;;;21.65;28.38;97811.38;4939040;29;1025;-73
2023/12/27 01:18:20;;;;;;;;;;;;;;;21.43;29.35;97811.22;4922690;29;1045;-73
2023/12/27 01:20:46;;;;;;;;;;;;;;;21.75;28.76;97828.06;4923184;29;1223;-74
2023/12/27 01:23:12;;;;;;;;;;;;;;;22.05;28.20;97823.91;4923267;29;1139;-73
2023/12/27 01:25:37;;;;;;;;;;;;;;;22.16;27.80;97823.59;4923026;29;1923;-73
2023/12/27 01:28:03;;;;;;;;;;;;;;;21.69;28.27;97824.19;4901071;29;1609;-73
2023/12/27 01:30:29;;;;;;;;;;;;;;;21.62;28.59;97815.94;4885260;29;1448;-73
2023/12/27 01:32:56;;;;;;;;;;;;;;;21.32;28.83;97826.47;4885161;29;1636;-73
2023/12/27 01:35:22;;;;;;;;;;;;;;;21.55;28.60;97821.78;4900654;29;1070;-73
2023/12/27 01:37:48;;;;;;;;;;;;;;;21.85;28.45;97826.16;4884764;29;1085;-74
2023/12/27 01:40:14;;;;;;;;;;;;;;;21.95;28.11;97829.91;4885016;29;1003;-73
2023/12/27 01:42:40;;;;;;;;;;;;;;;22.04;27.84;97827.19;4881488;29;1093;-74
2023/12/27 01:45:06;;;;;;;;;;;;;;;21.82;28.31;97833.53;4881838;29;1915;-73
2023/12/27 01:47:33;;;;;;;;;;;;;;;21.81;28.38;97842.44;4924430;29;1184;-73
2023/12/27 01:49:58;;;;;;;;;;;;;;;21.76;27.96;97846.66;4923840;29;1282;-73
2023/12/27 01:52:24;;;;;;;;;;;;;;;21.71;28.34;97849.22;4935088;29;1127;-73
2023/12/27 01:54:50;;;;;;;;;;;;;;;21.90;27.62;97856.75;4934961;29;1124;-73
2023/12/27 01:57:15;;;;;;;;;;;;;;;21.90;28.10;97855.97;4919234;29;1055;-73
2023/12/27 01:59:41;;;;;;;;;;;;;;;21.98;28.00;97846.81;4934922;29;1235;-73
2023/12/27 02:02:07;;;;;;;;;;;;;;;22.05;27.66;97862.78;4935185;29;1106;-73
2023/12/27 02:04:33;;;;;;;;;;;;;;;22.15;27.63;97867.34;4934834;29;1898;-74
2023/12/27 02:06:58;;;;;;;;;;;;;;;21.99;27.55;97873.09;4934889;29;1090;-73
2023/12/27 02:09:24;;;;;;;;;;;;;;;21.82;27.77;97878.84;4921210;29;1134;-73
2023/12/27 02:11:50;;;;;;;;;;;;;;;21.69;27.73;97875.16;4887543;29;1248;-73
2023/12/27 02:14:16;;;;;;;;;;;;;;;21.48;28.11;97875.78;4937600;29;1014;-73
2023/12/27 02:16:41;;;;;;;;;;;;;;;21.75;27.72;97883.91;4922065;29;1194;-73
2023/12/27 02:19:07;;;;;;;;;;;;;;;21.94;27.80;97876.47;4922057;29;1232;-73
2023/12/27 02:21:33;;;;;;;;;;;;;;;22.01;27.45;97871.38;4922030;29;1084;-73
2023/12/27 02:23:59;;;;;;;;;;;;;;;21.73;27.75;97881.53;4921995;29;1903;-73
2023/12/27 02:26:25;;;;;;;;;;;;;;;21.58;27.49;97891.69;4918516;29;1260;-73
2023/12/27 02:28:51;;;;;;;;;;;;;;;21.46;28.18;97889.59;4912367;29;1071;-73
2023/12/27 02:31:16;;;;;;;;;;;;;;;21.69;27.49;97883.66;4912145;29;977;-73
2023/12/27 02:33:44;;;;;;;;;;;;;;;21.87;27.64;97890.88;4896378;29;955;-73
2023/12/27 02:36:10;;;;;;;;;;;;;;;21.80;27.49;97889.03;4880791;29;974;-74
2023/12/27 02:38:36;;;;;;;;;;;;;;;22.05;27.17;97876.94;4896218;29;1138;-73
2023/12/27 02:41:02;;;;;;;;;;;;;;;21.76;27.67;97874.16;4909396;29;1008;-73
2023/12/27 02:43:30;;;;;;;;;;;;;;;21.91;27.39;97868.88;4948579;28;1918;-73
2023/12/27 02:45:56;;;;;;;;;;;;;;;21.96;27.47;97871.16;4953521;29;1054;-73
2023/12/27 02:48:22;;;;;;;;;;;;;;;21.75;27.61;97881.88;4953117;28;1305;-73
2023/12/27 02:50:48;;;;;;;;;;;;;;;21.75;27.29;97883.91;4953447;28;1208;-73
2023/12/27 02:53:13;;;;;;;;;;;;;;;21.49;28.11;97880.19;4953076;28;1084;-73
2023/12/27 02:55:39;;;;;;;;;;;;;;;21.83;27.48;97882.47;4952950;28;1312;-73
2023/12/27 02:58:05;;;;;;;;;;;;;;;21.87;27.44;97886.00;4983376;28;1016;-73
2023/12/27 03:00:35;;;;;;;;;;;;;;;22.06;27.13;97876.50;4992217;28;1302;-73
2023/12/27 03:03:01;;;;;;;;;;;;;;;22.11;27.37;97878.00;4997270;28;964;-73
2023/12/27 03:05:26;;;;;;;;;;;;;;;21.79;27.73;97879.72;5012148;28;1979;-73
2023/12/27 03:07:52;;;;;;;;;;;;;;;21.71;27.73;97867.03;5012757;28;994;-73
2023/12/27 03:10:17;;;;;;;;;;;;;;;21.55;27.61;97876.41;5012529;28;1244;-73
2023/12/27 03:12:43;;;;;;;;;;;;;;;21.82;27.65;97873.19;4996327;28;1126;-73
2023/12/27 03:15:09;;;;;;;;;;;;;;;22.00;27.38;97871.84;4996845;28;878;-73
2023/12/27 03:17:34;;;;;;;;;;;;;;;21.95;27.31;97878.06;5012227;28;1254;-73
2023/12/27 03:20:00;;;;;;;;;;;;;;;22.02;27.16;97880.69;5012357;28;974;-73
2023/12/27 03:22:25;;;;;;;;;;;;;;;21.78;27.51;97883.81;4995861;28;927;-73
2023/12/27 03:24:52;;;;;;;;;;;;;;;22.18;26.74;97889.13;5011924;28;1898;-73
2023/12/27 03:27:18;;;;;;;;;;;;;;;22.14;27.06;97899.00;4996576;28;993;-74
2023/12/27 03:29:43;;;;;;;;;;;;;;;21.94;27.05;97901.97;5012210;28;1162;-73
2023/12/27 03:32:09;;;;;;;;;;;;;;;21.78;27.02;97906.47;5011790;28;937;-73
2023/12/27 03:34:38;;;;;;;;;;;;;;;21.64;27.43;97901.22;5011914;28;933;-73
2023/12/27 03:37:04;;;;;;;;;;;;;;;21.65;27.37;97902.78;5011612;28;1006;-73
2023/12/27 03:39:29;;;;;;;;;;;;;;;22.02;26.94;97906.16;5011707;28;975;-73
2023/12/27 03:41:55;;;;;;;;;;;;;;;21.92;27.00;97905.28;4996602;28;926;-73
2023/12/27 03:44:20;;;;;;;;;;;;;;;21.82;26.92;97907.16;4996767;28;1984;-73
2023/12/27 03:46:46;;;;;;;;;;;;;;;21.77;27.17;97923.91;5017011;28;1163;-73
2023/12/27 03:49:11;;;;;;;;;;;;;;;22.02;26.63;97931.66;5017068;28;1108;-73
2023/12/27 03:51:37;;;;;;;;;;;;;;;21.73;26.81;97943.03;5017192;28;1091;-73
2023/12/27 03:54:03;;;;;;;;;;;;;;;21.61;26.90;97952.28;5017065;28;1410;-73
2023/12/27 03:56:29;;;;;;;;;;;;;;;21.40;27.47;97959.28;5017035;28;1586;-73
2023/12/27 03:58:54;;;;;;;;;;;;;;;21.83;26.60;97965.41;5033878;28;949;-73
2023/12/27 04:01:23;;;;;;;;;;;;;;;21.76;26.75;97968.44;5000295;28;1083;-73
2023/12/27 04:03:49;;;;;;;;;;;;;;;21.84;26.75;97971.84;5000742;28;1977;-73
2023/12/27 04:06:18;;;;;;;;;;;;;;;21.87;26.32;97970.97;5033148;28;958;-73
2023/12/27 04:08:44;;;;;;;;;;;;;;;22.21;26.05;97978.91;4977772;28;1175;-73
2023/12/27 04:11:10;;;;;;;;;;;;;;;21.77;26.58;97978.53;4977689;28;967;-73
2023/12/27 04:13:35;;;;;;;;;;;;;;;21.73;26.70;97989.16;4977822;28;1158;-73
2023/12/27 04:16:01;;;;;;;;;;;;;;;21.63;26.43;97995.91;4994145;28;1011;-73
2023/12/27 04:18:26;;;;;;;;;;;;;;;21.33;27.15;97997.88;4978751;28;944;-73
2023/12/27 04:20:52;;;;;;;;;;;;;;;21.70;26.57;98004.19;4974238;28;1222;-73
2023/12/27 04:23:18;;;;;;;;;;;;;;;21.74;26.36;98001.28;4974596;28;984;-73
2023/12/27 04:25:44;;;;;;;;;;;;;;;21.95;26.16;98006.34;4941905;28;1991;-73
2023/12/27 04:28:09;;;;;;;;;;;;;;;22.03;26.04;98007.75;4974365;28;1801;-73
2023/12/27 04:30:35;;;;;;;;;;;;;;;22.33;25.62;98015.00;4971567;28;1124;-73
2023/12/27 04:33:00;;;;;;;;;;;;;;;21.67;26.45;98013.59;4974881;28;1100;-73
2023/12/27 04:35:26;;;;;;;;;;;;;;;21.52;26.64;98012.38;4972877;28;1728;-73
2023/12/27 04:37:52;;;;;;;;;;;;;;;21.51;26.64;98024.94;4977382;28;1587;-73
2023/12/27 04:40:18;;;;;;;;;;;;;;;21.65;26.81;98032.25;5007272;28;1211;-73
2023/12/27 04:42:43;;;;;;;;;;;;;;;21.91;26.12;98021.84;5001011;28;1000;-73
2023/12/27 04:45:09;;;;;;;;;;;;;;;21.91;26.39;98030.34;5000681;28;1918;-73
2023/12/27 04:47:35;;;;;;;;;;;;;;;21.74;26.33;98038.88;5000704;28;1589;-73
2023/12/27 04:50:00;;;;;;;;;;;;;;;21.88;26.45;98045.41;5017457;28;1050;-73
2023/12/27 04:52:26;;;;;;;;;;;;;;;21.50;26.61;98054.47;4982438;28;2225;-73
2023/12/27 04:54:52;;;;;;;;;;;;;;;21.62;26.41;98050.16;4997352;28;1343;-73
2023/12/27 04:57:18;;;;;;;;;;;;;;;21.47;26.53;98061.03;4999251;28;1116;-73
2023/12/27 04:59:44;;;;;;;;;;;;;;;21.91;26.15;98055.84;4981231;28;1143;-73
2023/12/27 05:02:09;;;;;;;;;;;;;;;21.97;26.30;98059.75;4981101;28;1174;-73
2023/12/27 05:04:35;;;;;;;;;;;;;;;21.91;26.31;98058.66;4993581;28;1992;-73
2023/12/27 05:07:00;;;;;;;;;;;;;;;21.89;26.13;98061.16;4970351;28;1415;-73
2023/12/27 05:09:26;;;;;;;;;;;;;;;21.54;26.68;98066.50;4948364;28;1437;-73
2023/12/27 05:11:52;;;;;;;;;;;;;;;21.40;26.90;98078.19;4996828;28;985;-73
2023/12/27 05:14:17;;;;;;;;;;;;;;;21.43;26.96;98071.66;4996616;28;1531;-73
2023/12/27 05:16:46;;;;;;;;;;;;;;;21.68;26.40;98071.81;4979127;28;1447;-73
2023/12/27 05:19:11;;;;;;;;;;;;;;;21.79;26.50;98065.88;4981076;28;940;-73
2023/12/27 05:21:37;;;;;;;;;;;;;;;21.76;26.39;98084.56;4996849;28;970;-73
2023/12/27 05:24:03;;;;;;;;;;;;;;;21.99;26.04;98092.03;4980626;28;1903;-73
2023/12/27 05:26:28;;;;;;;;;;;;;;;21.88;26.48;98096.41;4979674;28;1330;-73
2023/12/27 05:28:54;;;;;;;;;;;;;;;21.87;26.39;98092.78;4964639;28;1259;-73
2023/12/27 05:31:19;;;;;;;;;;;;;;;21.36;26.80;98094.47;5007447;28;958;-73
2023/12/27 05:33:45;;;;;;;;;;;;;;;21.50;26.61;98088.44;5017517;28;895;-73
2023/12/27 05:36:11;;;;;;;;;;;;;;;21.62;26.45;98084.13;5031913;28;1292;-73
2023/12/27 05:38:36;;;;;;;;;;;;;;;21.77;26.44;98077.66;5036857;28;1002;-73
2023/12/27 05:41:03;;;;;;;;;;;;;;;21.93;26.14;98076.81;5036794;28;1000;-73
2023/12/27 05:43:29;;;;;;;;;;;;;;;21.79;26.28;98072.31;5037612;28;928;-73
2023/12/27 05:45:54;;;;;;;;;;;;;;;21.69;26.51;98083.94;5017982;28;1981;-73
2023/12/27 05:48:20;;;;;;;;;;;;;;;21.37;26.93;98081.91;5020195;28;1459;-73
2023/12/27 05:50:45;;;;;;;;;;;;;;;21.23;27.56;98086.63;5020061;28;1260;-73
2023/12/27 05:53:11;;;;;;;;;;;;;;;21.57;26.91;98099.59;5036712;28;930;-73
2023/12/27 05:55:36;;;;;;;;;;;;;;;21.51;26.99;98107.84;5033734;28;2104;-73
2023/12/27 05:58:02;;;;;;;;;;;;;;;21.63;27.00;98109.16;5037034;28;908;-73
2023/12/27 06:00:28;;;;;;;;;;;;;;;21.85;26.55;98110.19;5037834;28;1132;-73
2023/12/27 06:02:53;;;;;;;;;;;;;;;21.76;26.85;98107.22;5037810;28;862;-73
2023/12/27 06:05:19;;;;;;;;;;;;;;;21.25;27.15;98055.88;5034155;28;1905;-73
2023/12/27 06:07:46;;;;;;;;;;;;;;;21.82;26.41;98099.78;5020087;28;1194;-73
2023/12/27 06:10:11;;;;;;;;;;;;;;;21.94;26.88;98097.44;5036281;28;985;-72
2023/12/27 06:12:37;;;;;;;;;;;;;;;22.08;26.54;98088.56;4986631;28;1057;-73
2023/12/27 06:15:03;;;;;;;;;;;;;;;21.84;27.01;98097.28;5034882;28;1300;-73
2023/12/27 06:17:28;;;;;;;;;;;;;;;21.87;27.16;98101.28;5037640;28;915;-73
2023/12/27 06:19:54;;;;;;;;;;;;;;;21.90;27.05;98102.41;5035065;28;1564;-73
2023/12/27 06:22:19;;;;;;;;;;;;;;;21.68;27.15;98117.13;5035924;28;942;-73
2023/12/27 06:24:45;;;;;;;;;;;;;;;21.49;27.27;98115.97;4978744;28;1902;-73
2023/12/27 06:27:12;;;;;;;;;;;;;;;21.53;27.62;98130.03;4995477;28;896;-73
2023/12/27 06:29:39;;;;;;;;;;;;;;;21.56;27.82;98149.00;4979894;28;999;-73
2023/12/27 06:32:05;;;;;;;;;;;;;;;21.59;27.55;98148.88;4963678;28;1254;-73
2023/12/27 06:34:30;;;;;;;;;;;;;;;21.94;26.85;98145.63;4974847;28;1557;-73
2023/12/27 06:36:56;;;;;;;;;;;;;;;22.00;26.97;98155.16;4986997;28;1608;-73
2023/12/27 06:39:21;;;;;;;;;;;;;;;21.94;27.11;98156.94;4984145;28;1036;-73
2023/12/27 06:41:48;;;;;;;;;;;;;;;21.74;27.23;98163.50;4995586;28;964;-73
2023/12/27 06:44:13;;;;;;;;;;;;;;;21.44;27.67;98170.28;4956734;29;1989;-73
2023/12/27 06:46:39;;;;;;;;;;;;;;;21.43;28.05;98180.00;4942761;28;1230;-73
2023/12/27 06:49:05;;;;;;;;;;;;;;;21.77;27.20;98188.09;4975270;28;1427;-73
2023/12/27 06:51:30;;;;;;;;;;;;;;;22.03;27.10;98193.97;4959702;28;1013;-73
2023/12/27 06:53:56;;;;;;;;;;;;;;;21.61;27.48;98196.59;4940259;29;997;-73
2023/12/27 06:56:21;;;;;;;;;;;;;;;21.43;27.99;98201.88;4970580;28;991;-73
2023/12/27 06:58:47;;;;;;;;;;;;;;;21.69;27.57;98206.50;4958873;28;1414;-73
2023/12/27 07:01:14;;;;;;;;;;;;;;;21.86;27.16;98204.47;4959219;28;999;-73
2023/12/27 07:03:39;;;;;;;;;;;;;;;21.76;27.51;98192.19;4959462;28;1902;-73
2023/12/27 07:06:06;;;;;;;;;;;;;;;22.08;27.14;98201.94;4975151;28;1064;-73
2023/12/27 07:08:31;;;;;;;;;;;;;;;22.01;27.18;98207.75;4959319;28;1044;-73
2023/12/27 07:10:57;;;;;;;;;;;;;;;21.74;27.41;98191.81;4975029;28;1370;-72
2023/12/27 07:13:22;;;;;;;;;;;;;;;21.73;27.53;98206.44;4959222;28;1230;-73
2023/12/27 07:15:48;;;;;;;;;;;;;;;21.76;27.86;98203.53;4975510;28;1444;-73
2023/12/27 07:18:13;;;;;;;;;;;;;;;21.89;27.42;98211.31;5014558;28;1654;-73
2023/12/27 07:20:39;;;;;;;;;;;;;;;21.97;27.53;98201.41;4994478;28;1276;-72
2023/12/27 07:23:05;;;;;;;;;;;;;;;21.67;27.95;98194.81;4980328;28;1590;-73
2023/12/27 07:25:30;;;;;;;;;;;;;;;21.57;27.93;98184.56;4943607;28;1928;-73
2023/12/27 07:27:56;;;;;;;;;;;;;;;21.62;27.66;98175.53;4955771;29;1046;-73
2023/12/27 07:30:22;;;;;;;;;;;;;;;21.63;27.91;98173.50;4959242;28;1019;-73
2023/12/27 07:32:47;;;;;;;;;;;;;;;21.67;28.07;98182.72;4978374;28;1267;-73
2023/12/27 07:35:13;;;;;;;;;;;;;;;21.80;27.98;98181.53;5008983;28;1590;-73
2023/12/27 07:37:40;;;;;;;;;;;;;;;21.92;27.59;98177.22;4981587;28;1003;-72
2023/12/27 07:40:06;;;;;;;;;;;;;;;22.03;27.89;98179.78;4997599;28;1073;-73
2023/12/27 07:42:31;;;;;;;;;;;;;;;21.95;27.96;98192.53;5014288;28;1040;-73
2023/12/27 07:44:57;;;;;;;;;;;;;;;21.88;27.96;98195.56;4997621;28;1918;-73
2023/12/27 07:47:23;;;;;;;;;;;;;;;21.74;27.84;98188.97;4997607;28;1119;-73
2023/12/27 07:49:48;;;;;;;;;;;;;;;21.83;27.69;98196.88;4997494;28;1031;-73
2023/12/27 07:52:14;;;;;;;;;;;;;;;21.99;27.83;98194.03;5017078;28;1044;-73
2023/12/27 07:54:39;;;;;;;;;;;;;;;22.19;27.19;98210.97;5013814;28;1046;-73
2023/12/27 07:57:05;;;;;;;;;;;;;;;21.94;27.70;98208.72;4997204;28;917;-73
2023/12/27 07:59:31;;;;;;;;;;;;;;;21.87;27.74;98213.78;4982841;28;982;-72
2023/12/27 08:01:57;;;;;;;;;;;;;;;21.99;27.97;98222.38;4977773;28;1019;-73
2023/12/27 08:04:22;;;;;;;;;;;;;;;21.87;27.75;98225.13;4978206;28;1981;-73
2023/12/27 08:06:49;;;;;;;;;;;;;;;21.71;27.88;98240.84;4977852;28;1159;-73
2023/12/27 08:09:15;;;;;;;;;;;;;;;21.64;27.75;98260.81;4980986;28;984;-72
2023/12/27 08:11:40;;;;;;;;;;;;;;;21.68;28.07;98266.41;4985398;28;1410;-73
2023/12/27 08:14:06;;;;;;;;;;;;;;;21.97;27.98;98284.34;4998270;28;901;-73
2023/12/27 08:16:32;;;;;;;;;;;;;;;21.78;27.74;98296.53;4981952;28;1166;-73
2023/12/27 08:18:57;;;;;;;;;;;;;;;22.00;27.82;98308.16;4965904;28;1113;-73
2023/12/27 08:21:23;;;;;;;;;;;;;;;21.99;27.30;98315.88;4981815;28;988;-73
2023/12/27 08:23:49;;;;;;;;;;;;;;;21.88;27.80;98323.03;4998400;28;1983;-73
2023/12/27 08:26:14;;;;;;;;;;;;;;;21.44;28.20;98333.66;4998366;28;988;-72
2023/12/27 08:28:40;;;;;;;;;;;;;;;21.46;27.99;98334.06;5014100;28;949;-73
2023/12/27 08:31:06;;;;;;;;;;;;;;;21.85;27.73;98347.34;5019862;28;968;-73
2023/12/27 08:33:32;;;;;;;;;;;;;;;21.90;27.69;98351.69;5038243;28;1459;-73
2023/12/27 08:35:59;;;;;;;;;;;;;;;22.00;27.17;98353.50;5022180;28;1074;-73
2023/12/27 08:38:25;;;;;;;;;;;;;;;21.93;27.38;98343.13;5021843;28;2387;-73
2023/12/27 08:40:51;;;;;;;;;;;;;;;21.77;27.83;98346.72;5021822;28;1066;-73
2023/12/27 08:43:18;;;;;;;;;;;;;;;21.91;27.54;98339.94;5003989;28;1339;-73
2023/12/27 08:45:44;;;;;;;;;;;;;;;21.56;28.15;98330.19;5021376;28;1910;-73
2023/12/27 08:48:09;;;;;;;;;;;;;;;21.61;27.66;98338.19;5054329;28;989;-73
2023/12/27 08:50:36;;;;;;;;;;;;;;;21.73;27.48;98326.16;5059257;28;980;-73
2023/12/27 08:53:02;;;;;;;;;;;;;;;21.61;27.77;98332.53;5059171;28;964;-73
2023/12/27 08:55:27;;;;;;;;;;;;;;;21.69;28.06;98345.28;5024097;28;1289;-73
2023/12/27 08:57:53;;;;;;;;;;;;;;;21.88;27.92;98334.34;5041342;28;953;-73
2023/12/27 09:00:19;;;;;;;;;;;;;;;21.99;27.62;98341.38;5024734;28;1166;-73
2023/12/27 09:02:45;;;;;;;;;;;;;;;21.81;27.83;98344.63;5059042;28;958;-73
2023/12/27 09:05:11;;;;;;;;;;;;;;;22.01;27.42;98346.59;5040317;28;1985;-73
2023/12/27 09:07:37;;;;;;;;;;;;;;;21.69;27.97;98345.28;5040755;28;1154;-73
2023/12/27 09:10:04;;;;;;;;;;;;;;;21.64;27.88;98342.94;5041074;28;855;-73
2023/12/27 09:12:29;;;;;;;;;;;;;;;21.28;28.35;98352.16;5036319;28;1015;-73
2023/12/27 09:14:55;;;;;;;;;;;;;;;21.61;28.30;98360.84;5003237;28;1383;-73
2023/12/27 09:17:20;;;;;;;;;;;;;;;21.97;27.49;98351.56;5036761;28;940;-72
2023/12/27 09:19:46;;;;;;;;;;;;;;;21.88;27.87;98359.84;5018928;28;1436;-73
2023/12/27 09:22:12;;;;;;;;;;;;;;;22.02;27.32;98348.19;5019703;28;1241;-72
2023/12/27 09:24:37;;;;;;;;;;;;;;;21.91;27.89;98362.59;5018995;28;1993;-73
2023/12/27 09:27:03;;;;;;;;;;;;;;;21.57;28.17;98365.75;5036466;28;1069;-72
2023/12/27 09:29:30;;;;;;;;;;;;;;;21.45;28.09;98357.91;5019665;28;955;-73
2023/12/27 09:31:56;;;;;;;;;;;;;;;21.59;28.00;98354.78;5035309;28;1689;-73
2023/12/27 09:34:21;;;;;;;;;;;;;;;21.65;28.29;98361.53;5019170;28;1085;-73
2023/12/27 09:36:47;;;;;;;;;;;;;;;21.94;27.68;98347.56;5036290;28;1020;-72
2023/12/27 09:39:13;;;;;;;;;;;;;;;22.00;27.83;98345.00;5019397;28;1010;-73
2023/12/27 09:41:42;;;;;;;;;;;;;;;22.01;27.63;98340.94;4996393;28;1492;-73
2023/12/27 09:44:07;;;;;;;;;;;;;;;21.60;28.14;98336.56;4963160;28;1979;-73
2023/12/27 09:46:33;;;;;;;;;;;;;;;21.70;27.90;98334.72;4996068;28;1081;-73
2023/12/27 09:48:59;;;;;;;;;;;;;;;21.49;28.77;98341.66;4996607;28;1057;-73
2023/12/27 09:51:24;;;;;;;;;;;;;;;21.84;28.24;98355.06;5011196;28;999;-73
2023/12/27 09:53:50;;;;;;;;;;;;;;;21.79;28.45;98355.56;4999601;28;1470;-72
2023/12/27 09:56:16;;;;;;;;;;;;;;;22.00;27.84;98342.16;4999227;28;1431;-73
2023/12/27 09:58:42;;;;;;;;;;;;;;;21.94;27.88;98349.59;4999378;28;1004;-72
2023/12/27 10:01:07;;;;;;;;;;;;;;;21.59;28.24;98340.63;4998424;28;1604;-73
2023/12/27 10:03:37;;;;;;;;;;;;;;;21.53;28.41;98348.03;5015819;28;922;-73
2023/12/27 10:06:05;;;;;;;;;;;;;;;21.85;28.38;98336.03;4995252;28;1914;-73
2023/12/27 10:08:31;;;;;;;;;;;;;;;22.04;27.98;98340.06;4999511;28;1326;-73
2023/12/27 10:10:57;;;;;;;;;;;;;;;21.97;27.97;98332.53;4999087;28;954;-73
2023/12/27 10:13:22;;;;;;;;;;;;;;;21.74;28.29;98335.47;5031761;28;984;-73
2023/12/27 10:15:48;;;;;;;;;;;;;;;21.55;28.81;98334.25;5019249;28;1551;-73
2023/12/27 10:18:13;;;;;;;;;;;;;;;21.84;28.24;98323.91;5020259;28;2045;-73
2023/12/27 10:20:43;;;;;;;;;;;;;;;21.96;28.34;98321.63;5057834;28;1412;-73
2023/12/27 10:23:08;;;;;;;;;;;;;;;22.17;27.83;98329.63;5039661;28;1159;-73
2023/12/27 10:25:34;;;;;;;;;;;;;;;22.23;27.60;98333.56;5036751;28;1906;-73
2023/12/27 10:28:00;;;;;;;;;;;;;;;21.82;28.51;98331.25;5003254;28;1239;-73
2023/12/27 10:30:25;;;;;;;;;;;;;;;21.72;28.65;98324.59;5036691;28;893;-73
2023/12/27 10:33:00;;;;;;;;;;;;;;;21.71;28.81;98320.16;5019029;28;892;-73
2023/12/27 10:35:26;;;;;;;;;;;;;;;21.73;28.66;98320.50;5020377;28;1415;-72
2023/12/27 10:38:01;;;;;;;;;;;;;;;22.03;28.25;98327.13;5039123;28;916;-73
2023/12/27 10:40:27;;;;;;;;;;;;;;;22.09;28.12;98317.66;5023013;28;1285;-73
2023/12/27 10:42:53;;;;;;;;;;;;;;;21.87;28.50;98321.44;5022616;28;936;-73
2023/12/27 10:45:21;;;;;;;;;;;;;;;21.75;28.54;98315.19;5022699;28;1975;-73
2023/12/27 10:47:47;;;;;;;;;;;;;;;21.83;28.56;98315.84;5022972;28;1435;-73
2023/12/27 10:50:13;;;;;;;;;;;;;;;21.58;28.68;98322.06;5036008;28;926;-73
2023/12/27 10:52:39;;;;;;;;;;;;;;;21.84;28.79;98318.22;5035697;28;1044;-73
2023/12/27 10:55:08;;;;;;;;;;;;;;;22.06;28.35;98312.06;5014701;28;1075;-73
2023/12/27 10:57:34;;;;;;;;;;;;;;;21.89;28.86;98324.63;4999225;28;1421;-73
2023/12/27 10:59:59;;;;;;;;;;;;;;;22.12;28.58;98310.31;4981865;28;1144;-73
2023/12/27 11:02:25;;;;;;;;;;;;;;;22.21;28.07;98313.34;4998737;28;1117;-73
2023/12/27 11:04:51;;;;;;;;;;;;;;;22.06;28.41;98323.41;4997979;28;2039;-72
2023/12/27 11:07:16;;;;;;;;;;;;;;;21.78;28.32;98328.50;4981131;28;1364;-73
2023/12/27 11:09:42;;;;;;;;;;;;;;;21.75;28.34;98335.00;4991087;28;1360;-73
2023/12/27 11:12:08;;;;;;;;;;;;;;;21.84;28.61;98340.88;4991566;28;1054;-73
2023/12/27 11:14:35;;;;;;;;;;;;;;;21.61;28.87;98338.19;4975749;28;911;-73
2023/12/27 11:17:00;;;;;;;;;;;;;;;21.98;28.26;98327.66;4994203;28;1575;-73
2023/12/27 11:19:26;;;;;;;;;;;;;;;21.96;28.30;98335.78;4978767;28;989;-73
2023/12/27 11:21:52;;;;;;;;;;;;;;;21.81;28.64;98336.13;4962096;28;959;-72
2023/12/27 11:24:18;;;;;;;;;;;;;;;21.88;28.51;98334.34;4994513;28;1903;-73
2023/12/27 11:26:44;;;;;;;;;;;;;;;21.59;28.68;98330.09;4992851;28;1354;-73
2023/12/27 11:29:10;;;;;;;;;;;;;;;21.54;28.67;98333.44;4998226;28;1030;-73
2023/12/27 11:31:38;;;;;;;;;;;;;;;21.73;28.83;98340.34;4997918;28;953;-73
2023/12/27 11:34:04;;;;;;;;;;;;;;;21.65;28.97;98332.41;5013930;28;979;-73
2023/12/27 11:36:29;;;;;;;;;;;;;;;21.95;28.42;98328.53;4997250;28;1764;-73
2023/12/27 11:38:55;;;;;;;;;;;;;;;21.99;28.29;98323.56;4997578;28;977;-73
2023/12/27 11:41:21;;;;;;;;;;;;;;;21.59;29.02;98340.63;4994667;28;1018;-73
2023/12/27 11:43:47;;;;;;;;;;;;;;;21.81;28.60;98353.13;4978241;28;1009;-72
2023/12/27 11:46:13;;;;;;;;;;;;;;;21.44;28.72;98350.66;4978826;28;1910;-73
2023/12/27 11:48:39;;;;;;;;;;;;;;;21.76;28.67;98349.97;5016708;28;1331;-73
2023/12/27 11:51:23;;;;;;;;;;;;;;;21.81;28.62;98347.44;5017270;28;978;-73
2023/12/27 11:53:48;;;;;;;;;;;;;;;21.69;28.89;98356.59;5016716;28;1527;-73
2023/12/27 11:56:14;;;;;;;;;;;;;;;21.89;28.50;98352.94;5033773;28;956;-73
2023/12/27 11:58:41;;;;;;;;;;;;;;;21.74;28.66;98353.25;5000720;28;1431;-73
2023/12/27 12:01:24;;;;;;;;;;;;;;;21.88;28.49;98342.84;5033768;28;950;-72
2023/12/27 12:03:57;;;;;;;;;;;;;;;21.56;29.03;98352.84;5032800;28;1356;-73
2023/12/27 12:06:33;;;;;;;;;;;;;;;21.64;29.04;98348.63;5017202;28;941;-73
2023/12/27 12:08:59;;;;;;;;;;;;;;;21.82;28.66;98346.22;4996947;28;1001;-73
2023/12/27 12:11:25;;;;;;;;;;;;;;;21.72;28.97;98344.41;4997716;28;1016;-73
2023/12/27 12:13:50;;;;;;;;;;;;;;;21.87;28.77;98350.56;5015954;28;1338;-73
2023/12/27 12:16:16;;;;;;;;;;;;;;;21.56;28.76;98345.16;5000623;28;1011;-73
2023/12/27 12:18:42;;;;;;;;;;;;;;;21.64;28.82;98354.28;5016934;28;1039;-73
2023/12/27 12:21:07;;;;;;;;;;;;;;;21.65;28.64;98344.53;4974274;28;1057;-73
2023/12/27 12:23:33;;;;;;;;;;;;;;;21.69;28.61;98345.28;4958075;28;1383;-73
2023/12/27 12:26:02;;;;;;;;;;;;;;;21.77;28.81;98341.06;4958635;28;1922;-73
2023/12/27 12:28:28;;;;;;;;;;;;;;;21.72;28.87;98344.41;4959064;28;1121;-73
2023/12/27 12:30:56;;;;;;;;;;;;;;;21.67;28.59;98341.28;4958535;28;1055;-73
2023/12/27 12:33:22;;;;;;;;;;;;;;;21.68;28.50;98343.69;4957979;28;1475;-73
2023/12/27 12:35:49;;;;;;;;;;;;;;;21.40;28.99;98342.25;4958171;28;1033;-73
2023/12/27 12:38:14;;;;;;;;;;;;;;;21.57;29.12;98354.44;4958625;28;949;-73
2023/12/27 12:40:40;;;;;;;;;;;;;;;21.68;28.94;98365.53;4958065;28;1009;-73
2023/12/27 12:43:06;;;;;;;;;;;;;;;21.47;29.10;98369.63;4958364;28;994;-73
2023/12/27 12:45:32;;;;;;;;;;;;;;;21.61;28.66;98369.31;4915407;29;2042;-73
2023/12/27 12:47:58;;;;;;;;;;;;;;;21.57;28.78;98365.75;4901105;29;1309;-73
2023/12/27 12:50:24;;;;;;;;;;;;;;;21.75;28.48;98377.50;4917157;29;997;-73
2023/12/27 12:52:50;;;;;;;;;;;;;;;21.93;28.27;98387.66;4947508;29;1017;-73